Time;durP1;ratioP1;P1;durP2;ratioP2;P2;SDS_P1;SDS_P2;PMS_P1;PMS_P2;Temp;Humidity;BMP_temperature;BMP_pressure;BME280_temperature;BME280_humidity;BME280_pressure;Samples;Min_cycle;Max_cycle;Signal;HPM_P1;HPM_P2
2023/10/14 00:00:47;;;;;;;2.10;0.60;;;16.80;99.90;;;;;;5084678;28;20015;-89
2023/10/14 00:03:29;;;;;;;1.50;0.50;;;16.80;99.90;;;;;;5050159;28;20029;-89
2023/10/14 00:05:55;;;;;;;4.30;0.70;;;16.80;99.90;;;;;;5061847;28;20037;-89
2023/10/14 00:08:27;;;;;;;3.35;0.70;;;16.80;99.90;;;;;;5061431;28;20106;-89
2023/10/14 00:10:53;;;;;;;3.78;0.70;;;16.80;99.90;;;;;;5060547;28;20031;-88
2023/10/14 00:13:19;;;;;;;3.60;0.80;;;16.80;99.90;;;;;;5060221;28;20431;-88
2023/10/14 00:15:45;;;;;;;1.75;0.57;;;16.80;99.90;;;;;;5060088;28;20016;-89
2023/10/14 00:18:13;;;;;;;3.17;0.70;;;16.80;99.90;;;;;;5060078;28;20032;-90
2023/10/14 00:20:39;;;;;;;2.95;0.70;;;16.90;99.90;;;;;;5060167;28;20019;-88
2023/10/14 00:23:05;;;;;;;1.77;0.60;;;16.90;99.90;;;;;;5043376;28;20088;-86
2023/10/14 00:25:34;;;;;;;2.38;0.80;;;16.90;99.90;;;;;;5043398;28;20468;-88
2023/10/14 00:28:07;;;;;;;3.28;0.90;;;16.90;99.90;;;;;;5043437;28;20032;-90
2023/10/14 00:30:33;;;;;;;1.88;0.70;;;16.90;99.90;;;;;;5044431;28;20028;-88
2023/10/14 00:32:58;;;;;;;3.33;0.77;;;16.90;99.90;;;;;;5042781;28;20029;-89
2023/10/14 00:35:26;;;;;;;2.60;0.73;;;16.90;99.90;;;;;;5043249;28;20119;-88
2023/10/14 00:37:53;;;;;;;1.45;0.50;;;16.90;99.90;;;;;;5059591;28;20581;-88
2023/10/14 00:40:22;;;;;;;1.27;0.93;;;16.90;99.90;;;;;;5043261;28;20032;-88
2023/10/14 00:42:50;;;;;;;2.65;0.75;;;16.90;99.90;;;;;;5043676;28;20040;-89
2023/10/14 00:45:20;;;;;;;2.63;0.80;;;16.90;99.90;;;;;;5043028;28;20037;-89
2023/10/14 00:47:48;;;;;;;2.58;1.00;;;16.80;99.90;;;;;;5058795;28;20128;-89
2023/10/14 00:50:29;;;;;;;1.85;0.65;;;16.80;99.90;;;;;;5076982;28;20068;-89
2023/10/14 00:52:57;;;;;;;0.85;0.57;;;16.80;99.90;;;;;;5059279;28;20025;-88
2023/10/14 00:58:23;;;;;;;2.95;0.85;;;16.80;99.90;;;;;;5067372;28;20119;-89
2023/10/14 01:00:59;;;;;;;1.65;0.70;;;16.80;99.90;;;;;;5059156;28;20024;-89
2023/10/14 01:03:33;;;;;;;2.03;0.70;;;16.80;99.90;;;;;;5060676;28;20468;-89
2023/10/14 01:06:14;;;;;;;2.17;0.75;;;16.80;99.90;;;;;;5059311;28;20021;-87
2023/10/14 01:08:43;;;;;;;2.92;0.80;;;16.80;99.90;;;;;;5044720;28;20071;-89
2023/10/14 01:11:09;;;;;;;2.97;0.77;;;16.60;99.90;;;;;;5042585;28;20028;-89
2023/10/14 01:13:34;;;;;;;4.50;1.40;;;16.60;99.90;;;;;;5042395;28;20074;-89
2023/10/14 01:16:08;;;;;;;3.28;1.00;;;16.40;99.90;;;;;;5042663;28;20540;-89
2023/10/14 01:18:38;;;;;;;3.72;0.82;;;16.40;99.90;;;;;;5060822;28;20136;-89
2023/10/14 01:21:06;;;;;;;2.87;0.87;;;16.40;99.90;;;;;;5076723;28;20027;-89
2023/10/14 01:23:36;;;;;;;4.05;0.90;;;16.30;99.90;;;;;;5058854;28;20024;-90
2023/10/14 01:26:06;;;;;;;3.40;0.97;;;16.20;99.90;;;;;;5059663;28;20044;-88
2023/10/14 01:28:32;;;;;;;3.90;0.80;;;16.20;99.90;;;;;;5042862;28;20028;-89
2023/10/14 01:31:41;;;;;;;3.05;0.90;;;16.10;99.90;;;;;;5059144;28;20377;-88
2023/10/14 01:34:07;;;;;;;5.00;1.25;;;16.10;99.90;;;;;;5058826;28;20469;-90
2023/10/14 01:36:37;;;;;;;2.83;1.02;;;16.00;99.90;;;;;;5062153;28;20032;-89
2023/10/14 01:39:14;;;;;;;5.40;1.20;;;16.00;99.90;;;;;;5082612;28;20009;-87
2023/10/14 01:41:40;;;;;;;3.10;0.80;;;16.10;99.90;;;;;;5084503;28;20031;-88
2023/10/14 01:44:06;;;;;;;3.63;1.13;;;16.00;99.90;;;;;;5066275;28;20013;-87
2023/10/14 01:46:34;;;;;;;3.97;0.95;;;16.10;99.90;;;;;;5066035;28;20005;-88
2023/10/14 01:49:10;;;;;;;3.10;1.27;;;16.00;99.90;;;;;;5077885;28;20025;-89
2023/10/14 01:51:36;;;;;;;4.15;1.17;;;16.00;99.90;;;;;;5060618;28;20021;-89
2023/10/14 01:54:03;;;;;;;4.82;1.30;;;16.00;99.90;;;;;;5058239;28;20046;-90
2023/10/14 01:56:30;;;;;;;3.63;1.33;;;15.90;99.90;;;;;;5058142;28;20532;-89
2023/10/14 01:58:59;;;;;;;4.75;1.75;;;15.80;99.90;;;;;;5041690;28;20424;-88
2023/10/14 02:01:27;;;;;;;7.07;1.77;;;15.80;99.90;;;;;;5041794;28;20023;-89
2023/10/14 02:03:54;;;;;;;5.25;1.50;;;15.80;99.90;;;;;;5058498;28;20385;-89
2023/10/14 02:06:26;;;;;;;4.32;1.23;;;15.70;99.90;;;;;;5057910;28;20017;-88
2023/10/14 02:08:53;;;;;;;3.72;1.20;;;15.70;99.90;;;;;;5042268;28;20059;-89
2023/10/14 02:11:20;;;;;;;6.90;1.30;;;15.70;99.90;;;;;;5074930;28;20079;-88
2023/10/14 02:13:46;;;;;;;8.80;1.85;;;15.70;99.90;;;;;;5075501;28;20037;-89
2023/10/14 02:16:12;;;;;;;6.97;1.50;;;15.70;99.90;;;;;;5075411;28;20032;-88
2023/10/14 02:18:38;;;;;;;4.35;1.85;;;15.60;99.90;;;;;;5041512;28;20062;-88
2023/10/14 02:21:06;;;;;;;5.82;1.65;;;15.60;99.90;;;;;;5057596;28;20460;-90
2023/10/14 02:23:43;;;;;;;4.63;1.58;;;15.60;99.90;;;;;;5057103;28;20037;-89
2023/10/14 02:26:33;;;;;;;4.40;1.42;;;15.60;99.90;;;;;;5041496;28;20029;-90
2023/10/14 02:28:59;;;;;;;4.38;1.20;;;15.50;99.90;;;;;;5075351;28;20020;-89
2023/10/14 02:31:35;;;;;;;9.02;1.70;;;15.50;99.90;;;;;;5041051;28;20021;-89
2023/10/14 02:34:06;;;;;;;7.25;2.03;;;15.60;99.90;;;;;;5057455;28;20376;-89
2023/10/14 02:37:01;;;;;;;;;;;15.60;99.90;;;;;;5074417;28;20479;-90
2023/10/14 02:39:27;;;;;;;6.32;1.48;;;15.50;99.90;;;;;;5074339;28;20271;-89
2023/10/14 02:42:00;;;;;;;4.88;1.85;;;15.50;99.90;;;;;;5040042;28;20029;-89
2023/10/14 02:44:33;;;;;;;5.18;1.50;;;15.50;99.90;;;;;;5058458;28;20029;-89
2023/10/14 02:47:08;;;;;;;4.53;1.50;;;15.50;99.90;;;;;;5057022;28;20483;-88
2023/10/14 02:49:39;;;;;;;5.38;1.67;;;15.50;99.90;;;;;;5041942;28;20381;-88
2023/10/14 02:52:12;;;;;;;5.75;1.60;;;15.40;99.90;;;;;;5074759;28;20136;-88
2023/10/14 02:54:44;;;;;;;7.05;1.50;;;15.40;99.90;;;;;;5040793;28;20031;-89
2023/10/14 02:59:48;;;;;;;5.10;1.50;;;15.30;99.90;;;;;;5074824;28;20089;-89
2023/10/14 03:02:18;;;;;;;4.35;1.50;;;15.30;99.90;;;;;;5040201;28;20024;-89
2023/10/14 03:07:30;;;;;;;5.40;1.90;;;15.20;99.90;;;;;;5074670;28;20066;-90
2023/10/14 03:10:10;;;;;;;6.32;1.92;;;15.20;99.90;;;;;;5074734;28;20021;-90
2023/10/14 03:12:39;;;;;;;6.65;2.22;;;15.10;99.90;;;;;;5074654;28;20101;-89
2023/10/14 03:15:19;;;;;;;4.38;1.30;;;15.10;99.90;;;;;;5074821;28;20031;-90
2023/10/14 03:17:56;;;;;;;8.60;1.70;;;15.10;99.90;;;;;;5042289;28;20383;-88
2023/10/14 03:23:18;;;;;;;5.53;1.45;;;15.00;99.90;;;;;;5098367;28;20024;-89
2023/10/14 03:25:49;;;;;;;5.20;1.55;;;14.90;99.90;;;;;;5080799;28;20088;-88
2023/10/14 03:28:19;;;;;;;5.32;1.45;;;14.90;99.90;;;;;;5080815;28;20139;-87
2023/10/14 03:30:55;;;;;;;6.78;1.85;;;14.80;99.90;;;;;;5062250;28;20031;-91
2023/10/14 03:33:21;;;;;;;6.80;1.83;;;14.80;99.90;;;;;;5057607;28;20115;-88
2023/10/14 03:36:04;;;;;;;5.30;1.58;;;14.80;99.90;;;;;;5040537;28;20404;-89
2023/10/14 03:41:16;;;;;;;6.13;1.60;;;14.80;99.90;;;;;;5057793;28;20037;-88
2023/10/14 03:46:32;;;;;;;5.72;1.80;;;14.60;99.90;;;;;;5074280;28;20042;-89
2023/10/14 03:48:59;;;;;;;7.68;2.03;;;14.50;99.90;;;;;;5057647;28;20054;-89
2023/10/14 03:51:25;;;;;;;8.00;1.60;;;14.50;99.90;;;;;;5039979;28;20025;-89
2023/10/14 03:53:52;;;;;;;5.18;1.55;;;14.50;99.90;;;;;;5056616;28;20041;-88
2023/10/14 03:56:21;;;;;;;9.52;1.73;;;14.50;99.90;;;;;;5056312;28;20028;-85
2023/10/14 03:58:49;;;;;;;6.35;1.52;;;14.50;99.90;;;;;;5056820;28;20388;-89
2023/10/14 04:01:22;;;;;;;7.97;1.92;;;14.40;99.90;;;;;;5040160;28;20031;-89
2023/10/14 04:03:51;;;;;;;7.63;2.10;;;14.40;99.90;;;;;;5056616;28;20104;-89
2023/10/14 04:06:19;;;;;;;6.80;2.10;;;14.40;99.90;;;;;;5057144;28;20052;-89
2023/10/14 04:08:47;;;;;;;5.97;2.03;;;14.30;99.90;;;;;;5040330;28;20025;-89
2023/10/14 04:11:35;;;;;;;4.80;1.65;;;14.30;99.90;;;;;;5039876;28;20032;-88
2023/10/14 04:14:03;;;;;;;4.72;1.58;;;14.30;99.90;;;;;;5056486;28;20043;-89
2023/10/14 04:22:02;;;;;;;5.72;1.70;;;14.20;99.90;;;;;;5058351;28;20079;-89
2023/10/14 04:29:52;;;;;;;8.00;2.08;;;14.10;99.90;;;;;;5059199;28;20102;-88
2023/10/14 04:32:42;;;;;;;6.65;1.52;;;14.10;99.90;;;;;;5042948;28;20036;-88
2023/10/14 04:35:08;;;;;;;6.05;1.65;;;14.10;99.90;;;;;;5059941;28;20124;-88
2023/10/14 04:37:50;;;;;;;8.00;2.13;;;14.00;99.90;;;;;;5059862;28;20429;-88
2023/10/14 04:40:35;;;;;;;4.55;1.60;;;14.00;99.90;;;;;;5059982;28;20029;-89
2023/10/14 04:45:52;;;;;;;8.50;2.10;;;13.90;99.90;;;;;;5077400;28;20521;-89
2023/10/14 04:51:16;;;;;;;5.47;1.73;;;13.90;99.90;;;;;;5032709;28;20029;-89
2023/10/14 04:53:46;;;;;;;12.32;2.40;;;13.80;99.90;;;;;;5042991;28;20044;-89
2023/10/14 04:56:21;;;;;;;6.45;1.30;;;13.80;99.90;;;;;;5044243;28;20036;-90
2023/10/14 04:58:47;;;;;;;4.90;1.42;;;13.80;99.90;;;;;;5046238;28;20024;-89
2023/10/14 05:01:19;;;;;;;4.97;1.63;;;13.80;99.90;;;;;;5091028;28;20023;-89
2023/10/14 05:03:50;;;;;;;9.60;1.75;;;13.80;99.90;;;;;;5067419;28;20040;-88
2023/10/14 05:06:16;;;;;;;5.38;2.05;;;13.70;99.90;;;;;;5100748;28;20031;-88
2023/10/14 05:08:45;;;;;;;7.18;1.73;;;13.70;99.90;;;;;;5083388;28;20012;-88
2023/10/14 05:11:13;;;;;;;9.35;1.70;;;13.70;99.90;;;;;;5061667;28;20025;-88
2023/10/14 05:13:42;;;;;;;8.15;1.55;;;13.70;99.90;;;;;;5055842;28;20079;-88
2023/10/14 05:16:21;;;;;;;7.53;1.80;;;13.70;99.90;;;;;;5039923;28;20037;-90
2023/10/14 05:21:43;;;;;;;10.38;1.40;;;13.60;99.90;;;;;;5055637;28;20039;-88
2023/10/14 05:24:10;;;;;;;7.60;1.60;;;13.60;99.90;;;;;;5055843;28;20029;-89
2023/10/14 05:26:44;;;;;;;9.15;1.65;;;13.60;99.90;;;;;;5055337;28;20028;-88
2023/10/14 05:29:19;;;;;;;9.23;2.13;;;13.60;99.90;;;;;;5056530;28;20104;-89
2023/10/14 05:31:45;;;;;;;6.22;1.67;;;13.50;99.90;;;;;;5056483;28;20123;-89
2023/10/14 05:34:11;;;;;;;7.95;1.70;;;13.50;99.90;;;;;;5056485;28;20072;-90
2023/10/14 05:36:37;;;;;;;8.43;1.70;;;13.50;99.90;;;;;;5038502;28;20428;-89
2023/10/14 05:39:03;;;;;;;6.75;2.17;;;13.50;99.90;;;;;;5038665;28;20067;-89
2023/10/14 05:41:30;;;;;;;9.05;1.48;;;13.50;99.90;;;;;;5055314;28;20116;-88
2023/10/14 05:43:56;;;;;;;8.02;1.83;;;13.40;99.90;;;;;;5038043;28;20024;-89
2023/10/14 05:46:21;;;;;;;8.10;1.90;;;13.40;99.90;;;;;;5038730;28;20028;-88
2023/10/14 05:48:47;;;;;;;6.60;1.88;;;13.40;99.90;;;;;;5038249;28;20029;-89
2023/10/14 05:51:15;;;;;;;9.95;2.47;;;13.40;99.90;;;;;;5038242;28;20135;-91
2023/10/14 05:53:42;;;;;;;9.30;2.03;;;13.40;99.90;;;;;;5038640;28;20376;-90
2023/10/14 05:56:14;;;;;;;6.03;1.67;;;13.40;99.90;;;;;;5055262;28;20029;-90
2023/10/14 05:58:40;;;;;;;4.75;1.48;;;13.40;99.90;;;;;;5055059;28;20029;-90
2023/10/14 06:01:10;;;;;;;6.82;1.95;;;13.40;99.90;;;;;;5056009;28;20029;-90
2023/10/14 06:03:43;;;;;;;6.80;2.05;;;13.30;99.90;;;;;;5038437;28;20428;-88
2023/10/14 06:06:15;;;;;;;4.45;1.42;;;13.40;99.90;;;;;;5055058;28;20029;-90
2023/10/14 06:08:46;;;;;;;6.45;1.38;;;13.30;99.90;;;;;;5054440;28;20033;-89
2023/10/14 06:11:12;;;;;;;4.85;1.60;;;13.30;99.90;;;;;;5038371;28;20017;-89
2023/10/14 06:13:39;;;;;;;4.32;1.80;;;13.30;99.90;;;;;;5053712;28;20069;-89
2023/10/14 06:16:12;;;;;;;6.10;1.88;;;13.30;99.90;;;;;;5054233;28;20040;-90
2023/10/14 06:18:41;;;;;;;6.68;1.88;;;13.30;99.90;;;;;;5054138;28;20099;-89
2023/10/14 06:21:10;;;;;;;6.75;1.67;;;13.20;99.90;;;;;;5038287;28;20017;-89
2023/10/14 06:23:39;;;;;;;6.60;1.63;;;13.20;99.90;;;;;;5037784;28;20476;-90
2023/10/14 06:26:06;;;;;;;5.07;1.60;;;13.20;99.90;;;;;;5054438;28;20028;-89
2023/10/14 06:28:32;;;;;;;7.82;1.80;;;13.20;99.90;;;;;;5054252;28;20017;-89
2023/10/14 06:31:00;;;;;;;8.30;2.00;;;13.20;99.90;;;;;;5054290;28;20029;-91
2023/10/14 06:33:27;;;;;;;7.72;1.75;;;13.20;99.90;;;;;;5054560;28;20036;-92
2023/10/14 06:35:53;;;;;;;5.78;1.52;;;13.20;99.90;;;;;;5037715;28;20062;-90
2023/10/14 06:38:23;;;;;;;4.47;1.23;;;13.20;99.90;;;;;;5038064;28;20480;-90
2023/10/14 06:41:01;;;;;;;7.23;1.80;;;13.20;99.90;;;;;;5050592;28;20025;-89
2023/10/14 06:43:27;;;;;;;8.18;1.70;;;13.20;99.90;;;;;;5079025;28;20012;-90
2023/10/14 06:45:54;;;;;;;6.07;1.85;;;13.20;99.90;;;;;;5078772;28;20005;-88
2023/10/14 06:48:20;;;;;;;10.57;2.17;;;13.20;99.90;;;;;;5078242;28;20009;-88
2023/10/14 06:50:49;;;;;;;6.75;1.58;;;13.20;99.90;;;;;;5070447;28;20029;-89
2023/10/14 06:53:18;;;;;;;4.38;1.70;;;13.20;99.90;;;;;;5055750;28;20064;-90
2023/10/14 06:55:44;;;;;;;7.25;1.70;;;13.20;99.90;;;;;;5053649;28;20407;-89
2023/10/14 06:58:11;;;;;;;6.47;1.95;;;13.20;99.90;;;;;;5037215;28;20036;-89
2023/10/14 07:00:40;;;;;;;8.27;2.10;;;13.20;99.90;;;;;;5054181;28;20021;-90
2023/10/14 07:03:12;;;;;;;9.02;1.83;;;13.20;99.90;;;;;;5053777;28;20029;-89
2023/10/14 07:05:48;;;;;;;5.72;1.70;;;13.30;99.90;;;;;;5054351;28;20017;-89
2023/10/14 07:08:14;;;;;;;7.88;1.88;;;13.30;99.90;;;;;;5053853;28;20059;-90
2023/10/14 07:10:40;;;;;;;6.10;1.75;;;13.30;99.90;;;;;;5053554;28;20468;-91
2023/10/14 07:13:06;;;;;;;6.80;2.00;;;13.30;99.90;;;;;;5036961;28;20080;-90
2023/10/14 07:15:42;;;;;;;5.65;1.58;;;13.30;99.90;;;;;;5054495;28;20106;-91
2023/10/14 07:18:13;;;;;;;4.82;1.65;;;13.40;99.90;;;;;;5053624;28;20025;-89
2023/10/14 07:20:41;;;;;;;;;;;13.40;99.90;;;;;;5038287;28;20381;-89
2023/10/14 07:23:07;;;;;;;7.20;2.10;;;13.50;99.90;;;;;;5053466;28;19912;-91
2023/10/14 07:25:39;;;;;;;7.30;1.80;;;13.50;99.90;;;;;;5053850;28;20480;-91
2023/10/14 07:28:13;;;;;;;10.85;2.00;;;13.50;99.90;;;;;;5053203;28;20465;-90
2023/10/14 07:30:46;;;;;;;8.27;1.90;;;13.50;99.90;;;;;;5038162;28;20037;-89
2023/10/14 07:33:16;;;;;;;7.63;2.28;;;13.50;99.90;;;;;;5037864;28;20033;-90
2023/10/14 07:35:41;;;;;;;8.57;2.05;;;13.60;99.90;;;;;;5053336;28;20021;-91
2023/10/14 07:38:08;;;;;;;7.07;2.10;;;13.60;99.90;;;;;;5053095;28;20098;-91
2023/10/14 07:40:34;;;;;;;5.53;1.83;;;13.60;99.90;;;;;;5052936;28;20025;-91
2023/10/14 07:43:05;;;;;;;7.50;1.90;;;13.70;99.90;;;;;;5036661;28;20033;-90
2023/10/14 07:45:33;;;;;;;9.70;1.92;;;13.70;99.90;;;;;;5053434;28;20021;-91
2023/10/14 07:48:08;;;;;;;6.63;1.45;;;13.70;99.90;;;;;;5053042;28;20029;-90
2023/10/14 07:50:44;;;;;;;7.07;2.00;;;13.70;99.90;;;;;;5053359;28;20021;-91
2023/10/14 07:53:14;;;;;;;10.70;2.10;;;13.80;99.90;;;;;;5053974;28;20086;-90
2023/10/14 07:55:47;;;;;;;7.13;2.15;;;13.80;99.90;;;;;;5052956;28;20491;-89
2023/10/14 07:58:15;;;;;;;9.05;2.28;;;13.90;99.90;;;;;;5053204;28;20108;-90
2023/10/14 08:00:50;;;;;;;6.97;2.33;;;13.90;99.90;;;;;;5054284;28;20021;-90
2023/10/14 08:03:17;;;;;;;6.68;2.10;;;13.90;99.90;;;;;;5052995;28;20029;-91
2023/10/14 08:06:05;;;;;;;7.40;1.80;;;14.00;99.90;;;;;;5055553;28;20024;-90
2023/10/14 08:08:31;;;;;;;7.00;1.90;;;14.00;99.90;;;;;;5057279;28;20480;-91
2023/10/14 08:10:59;;;;;;;9.02;2.60;;;14.00;99.90;;;;;;5058452;28;20185;-90
2023/10/14 08:13:25;;;;;;;5.72;2.00;;;14.00;99.90;;;;;;5056890;28;20049;-90
2023/10/14 08:15:59;;;;;;;8.55;2.25;;;14.10;99.90;;;;;;5058899;28;20053;-90
2023/10/14 08:18:25;;;;;;;6.00;2.25;;;14.10;99.90;;;;;;5057883;28;20436;-90
2023/10/14 08:20:55;;;;;;;7.47;1.73;;;14.10;99.90;;;;;;5071920;28;20028;-90
2023/10/14 08:23:24;;;;;;;8.07;1.90;;;14.20;99.90;;;;;;5079333;28;20028;-90
2023/10/14 08:25:57;;;;;;;9.85;2.10;;;14.20;99.90;;;;;;5079280;28;20025;-90
2023/10/14 08:28:23;;;;;;;7.88;2.13;;;14.30;99.90;;;;;;5079808;28;20051;-90
2023/10/14 08:30:52;;;;;;;9.98;2.25;;;14.30;99.90;;;;;;5068768;28;20033;-90
2023/10/14 08:33:20;;;;;;;9.70;2.03;;;14.30;99.90;;;;;;5059317;28;20047;-91
2023/10/14 08:35:48;;;;;;;7.65;2.03;;;14.40;99.90;;;;;;5058724;28;20032;-89
2023/10/14 08:38:14;;;;;;;8.40;2.50;;;14.40;99.90;;;;;;5057625;28;20029;-89
2023/10/14 08:40:41;;;;;;;5.68;2.00;;;14.40;99.90;;;;;;5058249;28;20373;-90
2023/10/14 08:43:14;;;;;;;10.30;2.60;;;14.50;99.90;;;;;;5056851;28;20021;-89
2023/10/14 08:45:41;;;;;;;9.57;2.45;;;14.50;99.90;;;;;;5057463;28;20056;-90
2023/10/14 08:48:14;;;;;;;9.43;2.67;;;14.50;99.90;;;;;;5056109;28;20037;-89
2023/10/14 08:50:41;;;;;;;9.23;2.22;;;14.50;99.90;;;;;;5057451;28;20021;-90
2023/10/14 08:53:09;;;;;;;8.57;2.50;;;14.60;99.90;;;;;;5057196;28;20029;-90
2023/10/14 08:55:37;;;;;;;8.93;2.65;;;14.60;99.90;;;;;;5056355;28;20459;-90
2023/10/14 08:58:05;;;;;;;9.13;2.28;;;14.60;99.90;;;;;;5055944;28;20146;-90
2023/10/14 09:00:36;;;;;;;8.35;2.00;;;14.60;99.90;;;;;;5056176;28;20024;-91
2023/10/14 09:03:03;;;;;;;10.50;2.35;;;14.70;99.90;;;;;;5055996;28;20025;-89
2023/10/14 09:05:30;;;;;;;10.90;2.58;;;14.70;99.90;;;;;;5056344;28;20026;-91
2023/10/14 09:07:57;;;;;;;6.85;2.22;;;14.70;99.90;;;;;;5039849;28;20033;-91
2023/10/14 09:10:24;;;;;;;9.82;2.42;;;14.80;99.90;;;;;;5056959;28;20025;-91
2023/10/14 09:12:54;;;;;;;7.88;2.28;;;14.80;99.90;;;;;;5055389;28;20557;-89
2023/10/14 09:15:23;;;;;;;10.55;2.55;;;14.90;99.90;;;;;;5056125;28;20033;-89
2023/10/14 09:17:49;;;;;;;8.75;2.03;;;14.90;99.90;;;;;;5054916;28;20017;-88
2023/10/14 09:20:45;;;;;;;9.20;2.05;;;15.00;99.90;;;;;;5056638;28;20052;-88
2023/10/14 09:23:18;;;;;;;9.88;2.20;;;15.00;99.90;;;;;;5043821;28;20041;-88
2023/10/14 09:25:58;;;;;;;8.57;2.33;;;15.10;99.90;;;;;;5055468;28;20056;-89
2023/10/14 09:28:35;;;;;;;7.95;2.42;;;15.00;99.90;;;;;;5056539;28;20036;-90
2023/10/14 09:31:02;;;;;;;9.98;2.10;;;15.10;99.90;;;;;;5055208;28;20021;-89
2023/10/14 09:33:32;;;;;;;13.02;2.70;;;15.10;99.90;;;;;;5056569;28;20108;-89
2023/10/14 09:35:59;;;;;;;8.52;2.20;;;15.10;99.90;;;;;;5055212;28;20025;-92
2023/10/14 09:38:26;;;;;;;5.65;1.70;;;15.10;99.90;;;;;;5055290;28;20464;-89
2023/10/14 09:40:58;;;;;;;6.63;2.40;;;15.10;99.90;;;;;;5055072;28;20028;-88
2023/10/14 09:43:27;;;;;;;7.93;2.10;;;15.10;99.90;;;;;;5056047;28;20035;-90
2023/10/14 09:45:57;;;;;;;10.00;2.50;;;15.20;99.90;;;;;;5056178;28;20028;-89
2023/10/14 09:48:25;;;;;;;6.38;2.35;;;15.20;99.90;;;;;;5056557;28;20053;-89
2023/10/14 09:50:56;;;;;;;6.95;2.03;;;15.20;99.90;;;;;;5038747;28;20372;-90
2023/10/14 09:53:26;;;;;;;6.43;2.05;;;15.20;99.90;;;;;;5056108;28;20104;-89
2023/10/14 09:55:57;;;;;;;10.25;2.33;;;15.20;99.90;;;;;;5055407;28;20051;-88
2023/10/14 09:58:26;;;;;;;7.90;2.28;;;15.20;99.90;;;;;;5055415;28;20021;-89
2023/10/14 10:00:53;;;;;;;8.20;1.73;;;15.20;99.90;;;;;;5055387;28;20029;-91
2023/10/14 10:03:21;;;;;;;5.75;1.80;;;15.30;99.90;;;;;;5059963;28;20028;-88
2023/10/14 10:06:06;;;;;;;7.82;2.22;;;15.30;99.90;;;;;;5078569;28;20029;-89
2023/10/14 10:08:48;;;;;;;6.05;2.05;;;15.30;99.90;;;;;;5078051;28;20009;-89
2023/10/14 10:11:23;;;;;;;8.25;2.25;;;15.30;99.90;;;;;;5078317;28;20048;-91
2023/10/14 10:13:59;;;;;;;7.93;1.83;;;15.30;99.80;;;;;;5078433;28;20045;-90
2023/10/14 10:16:33;;;;;;;7.05;1.80;;;15.30;99.60;;;;;;5059893;28;20456;-89
2023/10/14 10:19:01;;;;;;;10.18;2.40;;;15.30;99.60;;;;;;5058442;28;20020;-88
2023/10/14 10:21:31;;;;;;;6.97;1.85;;;15.30;99.70;;;;;;5057845;28;20032;-90
2023/10/14 10:24:18;;;;;;;7.23;1.93;;;15.30;99.30;;;;;;5040900;28;20036;-88
2023/10/14 10:26:57;;;;;;;5.47;1.92;;;15.30;98.90;;;;;;5057573;28;20255;-90
2023/10/14 10:29:23;;;;;;;9.27;2.00;;;15.20;98.90;;;;;;5056068;28;20027;-89
2023/10/14 10:32:08;;;;;;;6.28;1.80;;;15.10;98.70;;;;;;5040977;28;20028;-88
2023/10/14 10:34:54;;;;;;;5.43;1.70;;;14.90;98.90;;;;;;5074812;28;20119;-88
2023/10/14 10:37:27;;;;;;;5.60;1.40;;;14.70;99.10;;;;;;5056692;28;20119;-89
2023/10/14 10:39:53;;;;;;;6.40;1.30;;;14.60;99.20;;;;;;5057300;28;20443;-89
2023/10/14 10:42:20;;;;;;;6.13;1.70;;;14.50;99.50;;;;;;5040827;28;20071;-89
2023/10/14 10:44:45;;;;;;;6.32;1.60;;;14.50;99.70;;;;;;5057209;28;20025;-88
2023/10/14 10:47:14;;;;;;;4.82;1.30;;;14.40;99.90;;;;;;5056623;28;20016;-89
2023/10/14 10:49:49;;;;;;;5.15;1.52;;;14.40;99.90;;;;;;5056841;28;20024;-88
2023/10/14 10:52:15;;;;;;;5.72;1.80;;;14.40;99.90;;;;;;5056782;28;20028;-90
2023/10/14 10:54:45;;;;;;;10.02;1.80;;;14.40;99.90;;;;;;5040181;28;20364;-89
2023/10/14 10:57:12;;;;;;;6.47;1.60;;;14.40;99.90;;;;;;5056778;28;20097;-89
2023/10/14 10:59:38;;;;;;;7.05;1.70;;;14.50;99.90;;;;;;5074568;28;20024;-88
2023/10/14 11:02:08;;;;;;;4.70;1.90;;;14.50;99.90;;;;;;5056009;28;20052;-89
2023/10/14 11:04:34;;;;;;;4.60;1.75;;;14.50;99.90;;;;;;5057022;28;20082;-89
2023/10/14 11:07:00;;;;;;;8.75;1.48;;;14.50;99.90;;;;;;5057130;28;20024;-93
2023/10/14 11:09:30;;;;;;;5.38;1.85;;;14.60;99.90;;;;;;5039432;28;20107;-90
2023/10/14 11:12:03;;;;;;;8.90;2.35;;;14.60;99.90;;;;;;5074351;28;20553;-89
2023/10/14 11:14:29;;;;;;;8.65;2.00;;;14.70;99.90;;;;;;5040524;28;20040;-89
2023/10/14 11:16:58;;;;;;;7.15;1.90;;;14.70;99.90;;;;;;5055739;28;20114;-87
2023/10/14 11:19:32;;;;;;;4.88;1.65;;;14.80;99.90;;;;;;5056516;28;20286;-88
2023/10/14 11:21:59;;;;;;;5.97;1.67;;;14.80;99.90;;;;;;5074445;28;20461;-88
2023/10/14 11:24:26;;;;;;;8.63;2.13;;;14.90;99.90;;;;;;5039827;28;20032;-88
2023/10/14 11:26:53;;;;;;;6.35;1.77;;;15.00;99.90;;;;;;5074471;28;20115;-88
2023/10/14 11:29:23;;;;;;;5.47;1.80;;;15.00;99.90;;;;;;5057172;28;20024;-89
2023/10/14 11:31:53;;;;;;;6.43;1.65;;;15.00;99.90;;;;;;5040240;28;20033;-88
2023/10/14 11:34:20;;;;;;;7.20;1.90;;;14.90;99.90;;;;;;5040858;28;20028;-88
2023/10/14 11:36:48;;;;;;;6.93;1.83;;;14.90;99.90;;;;;;5056604;28;20025;-88
2023/10/14 11:39:19;;;;;;;6.72;1.75;;;14.70;99.30;;;;;;5040213;28;20032;-89
2023/10/14 11:41:50;;;;;;;6.72;1.80;;;14.60;99.20;;;;;;5060342;28;20021;-90
2023/10/14 11:44:19;;;;;;;3.80;1.30;;;14.60;99.40;;;;;;5061908;28;20013;-88
2023/10/14 11:46:46;;;;;;;8.07;1.85;;;14.50;99.50;;;;;;5067960;28;20051;-87
2023/10/14 11:49:12;;;;;;;4.38;1.20;;;14.50;99.50;;;;;;5084813;28;20029;-87
2023/10/14 11:51:46;;;;;;;4.88;1.33;;;14.50;99.40;;;;;;5084729;28;20020;-87
2023/10/14 11:54:12;;;;;;;5.90;1.10;;;14.60;99.30;;;;;;5071607;28;20071;-87
2023/10/14 11:56:41;;;;;;;3.63;1.20;;;14.60;99.30;;;;;;5078773;28;20372;-89
2023/10/14 11:59:07;;;;;;;4.90;1.40;;;14.60;99.00;;;;;;5061211;28;20108;-89
2023/10/14 12:01:34;;;;;;;5.72;1.60;;;14.70;99.10;;;;;;5060159;28;20029;-87
2023/10/14 12:04:01;;;;;;;7.20;1.80;;;14.70;99.30;;;;;;5077858;28;20033;-87
2023/10/14 12:06:30;;;;;;;5.18;1.73;;;14.80;99.20;;;;;;5060272;28;20016;-88
2023/10/14 12:08:56;;;;;;;5.07;1.73;;;14.80;99.20;;;;;;5043757;28;20035;-88
2023/10/14 12:11:22;;;;;;;7.28;2.03;;;14.80;99.20;;;;;;5059979;28;20114;-88
2023/10/14 12:13:48;;;;;;;7.55;1.63;;;14.80;98.70;;;;;;5059765;28;20136;-88
2023/10/14 12:16:18;;;;;;;5.35;1.50;;;14.80;98.80;;;;;;5077461;28;20444;-88
2023/10/14 12:18:45;;;;;;;7.93;1.77;;;14.80;98.90;;;;;;5077534;28;20107;-88
2023/10/14 12:21:11;;;;;;;8.55;1.83;;;14.90;99.10;;;;;;5059536;28;20024;-87
2023/10/14 12:23:38;;;;;;;7.10;1.63;;;14.90;99.40;;;;;;5042867;28;20028;-88
2023/10/14 12:26:04;;;;;;;11.93;2.13;;;15.00;99.00;;;;;;5043119;28;20029;-89
2023/10/14 12:28:30;;;;;;;4.30;1.63;;;15.00;99.10;;;;;;5042451;28;20027;-88
2023/10/14 12:31:06;;;;;;;8.60;2.00;;;15.10;99.30;;;;;;5077497;28;20028;-88
2023/10/14 12:33:38;;;;;;;8.23;2.15;;;15.20;99.30;;;;;;5077253;28;20060;-89
2023/10/14 12:36:12;;;;;;;6.57;1.85;;;15.20;99.20;;;;;;5059628;28;20103;-88
2023/10/14 12:38:42;;;;;;;8.45;2.10;;;15.20;99.10;;;;;;5043958;28;20024;-89
2023/10/14 12:41:08;;;;;;;7.30;2.10;;;15.30;99.00;;;;;;5059427;28;20078;-88
2023/10/14 12:43:39;;;;;;;8.05;2.00;;;15.30;98.90;;;;;;5042763;28;20025;-88
2023/10/14 12:46:10;;;;;;;5.70;1.65;;;15.30;98.80;;;;;;5043506;28;20028;-89
2023/10/14 12:48:40;;;;;;;7.25;2.42;;;15.30;98.60;;;;;;5042984;28;20459;-88
2023/10/14 12:51:30;;;;;;;7.13;1.75;;;15.30;98.60;;;;;;5076922;28;20021;-89
2023/10/14 12:53:57;;;;;;;7.18;1.83;;;15.20;98.50;;;;;;5058471;28;20029;-88
2023/10/14 12:56:26;;;;;;;5.35;1.77;;;15.20;98.60;;;;;;5058949;28;20033;-89
2023/10/14 12:58:53;;;;;;;4.30;1.63;;;15.10;98.50;;;;;;5059524;28;20114;-89
2023/10/14 13:01:22;;;;;;;4.55;1.27;;;15.10;98.30;;;;;;5076660;28;20051;-89
2023/10/14 13:03:53;;;;;;;7.40;1.73;;;15.10;98.20;;;;;;5059168;28;20035;-88
2023/10/14 13:06:22;;;;;;;;;;;15.10;98.00;;;;;;5077108;28;20052;-86
2023/10/14 13:08:59;;;;;;;5.05;1.35;;;15.10;97.70;;;;;;5058800;28;19995;-88
2023/10/14 13:11:29;;;;;;;4.13;1.20;;;15.10;97.20;;;;;;5076550;28;20392;-88
2023/10/14 13:13:55;;;;;;;5.07;1.30;;;15.10;97.00;;;;;;5058177;28;20072;-88
2023/10/14 13:16:23;;;;;;;6.78;1.80;;;15.20;96.70;;;;;;5058794;28;20036;-87
2023/10/14 13:18:49;;;;;;;3.67;1.48;;;15.20;96.50;;;;;;5059547;28;20380;-88
2023/10/14 13:21:18;;;;;;;5.05;1.35;;;15.20;96.80;;;;;;5042603;28;20025;-89
2023/10/14 13:23:47;;;;;;;5.13;1.75;;;15.30;96.80;;;;;;5059382;28;20058;-87
2023/10/14 13:26:17;;;;;;;4.07;1.10;;;15.40;96.40;;;;;;5058524;28;20031;-87
2023/10/14 13:28:47;;;;;;;7.43;1.50;;;15.50;96.10;;;;;;5082735;28;20020;-87
2023/10/14 13:31:15;;;;;;;3.28;1.40;;;15.50;95.90;;;;;;5100194;28;20028;-89
2023/10/14 13:33:47;;;;;;;7.30;1.75;;;15.50;95.70;;;;;;5082751;28;20040;-88
2023/10/14 13:36:21;;;;;;;4.85;1.35;;;15.50;96.00;;;;;;5092934;28;20052;-88
2023/10/14 13:38:47;;;;;;;6.18;1.67;;;15.40;96.40;;;;;;5076211;28;20047;-90